sensor_id;sensor_type;location;lat;lon;timestamp;P1;durP1;ratioP1;P2;durP2;ratioP2
70487;SDS011;57976;48.174;16.370;2024-03-23T00:55:09;10.60;;;6.00;;
70487;SDS011;57976;48.174;16.370;2024-03-23T00:57:13;11.40;;;6.10;;
70487;SDS011;57976;48.174;16.370;2024-03-23T00:59:17;11.20;;;5.90;;
70487;SDS011;57976;48.174;16.370;2024-03-23T01:01:22;10.60;;;6.00;;
70487;SDS011;57976;48.174;16.370;2024-03-23T01:03:26;11.00;;;5.80;;
70487;SDS011;57976;48.174;16.370;2024-03-23T01:05:30;11.10;;;6.30;;
70487;SDS011;57976;48.174;16.370;2024-03-23T01:07:35;12.90;;;7.20;;
70487;SDS011;57976;48.174;16.370;2024-03-23T01:09:40;10.90;;;6.30;;
70487;SDS011;57976;48.174;16.370;2024-03-23T01:11:44;11.60;;;6.20;;
70487;SDS011;57976;48.174;16.370;2024-03-23T01:13:48;11.30;;;5.70;;
70487;SDS011;57976;48.174;16.370;2024-03-23T01:15:53;11.20;;;5.90;;
70487;SDS011;57976;48.174;16.370;2024-03-23T01:17:58;11.20;;;5.90;;
70487;SDS011;57976;48.174;16.370;2024-03-23T01:20:03;10.40;;;6.00;;
70487;SDS011;57976;48.174;16.370;2024-03-23T01:22:08;11.10;;;5.80;;
70487;SDS011;57976;48.174;16.370;2024-03-23T01:24:12;11.20;;;5.80;;
70487;SDS011;57976;48.174;16.370;2024-03-23T01:26:17;9.20;;;5.60;;
70487;SDS011;57976;48.174;16.370;2024-03-23T01:28:21;12.30;;;6.60;;
70487;SDS011;57976;48.174;16.370;2024-03-23T01:30:26;11.60;;;5.60;;
70487;SDS011;57976;48.174;16.370;2024-03-23T01:32:30;11.70;;;6.30;;
70487;SDS011;57976;48.174;16.370;2024-03-23T01:34:34;11.70;;;6.10;;
70487;SDS011;57976;48.174;16.370;2024-03-23T01:36:39;10.90;;;6.00;;
70487;SDS011;57976;48.174;16.370;2024-03-23T01:38:46;12.40;;;5.80;;
70487;SDS011;57976;48.174;16.370;2024-03-23T01:40:57;10.50;;;6.30;;
70487;SDS011;57976;48.174;16.370;2024-03-23T01:43:03;11.00;;;5.70;;
70487;SDS011;57976;48.174;16.370;2024-03-23T01:45:10;10.20;;;5.70;;
70487;SDS011;57976;48.174;16.370;2024-03-23T01:47:18;10.40;;;6.10;;
70487;SDS011;57976;48.174;16.370;2024-03-23T01:49:22;11.40;;;6.00;;
70487;SDS011;57976;48.174;16.370;2024-03-23T01:51:27;11.70;;;6.20;;
70487;SDS011;57976;48.174;16.370;2024-03-23T01:53:32;12.00;;;6.20;;
70487;SDS011;57976;48.174;16.370;2024-03-23T01:55:36;12.00;;;6.20;;
70487;SDS011;57976;48.174;16.370;2024-03-23T01:57:44;11.20;;;6.70;;
70487;SDS011;57976;48.174;16.370;2024-03-23T01:59:49;10.60;;;6.00;;
70487;SDS011;57976;48.174;16.370;2024-03-23T02:01:58;10.40;;;6.30;;
70487;SDS011;57976;48.174;16.370;2024-03-23T02:04:02;10.50;;;6.00;;
70487;SDS011;57976;48.174;16.370;2024-03-23T02:06:07;11.10;;;6.30;;
70487;SDS011;57976;48.174;16.370;2024-03-23T02:08:12;11.00;;;6.60;;
70487;SDS011;57976;48.174;16.370;2024-03-23T02:10:17;11.40;;;6.80;;
70487;SDS011;57976;48.174;16.370;2024-03-23T02:12:21;12.20;;;7.20;;
70487;SDS011;57976;48.174;16.370;2024-03-23T02:14:26;11.70;;;6.70;;
70487;SDS011;57976;48.174;16.370;2024-03-23T02:16:30;12.70;;;7.00;;
70487;SDS011;57976;48.174;16.370;2024-03-23T02:18:34;15.00;;;7.20;;
70487;SDS011;57976;48.174;16.370;2024-03-23T02:20:39;11.90;;;6.40;;
70487;SDS011;57976;48.174;16.370;2024-03-23T02:22:43;11.20;;;7.10;;
70487;SDS011;57976;48.174;16.370;2024-03-23T02:24:48;12.20;;;6.70;;
70487;SDS011;57976;48.174;16.370;2024-03-23T02:26:52;12.20;;;6.70;;
70487;SDS011;57976;48.174;16.370;2024-03-23T02:28:57;13.50;;;6.90;;
70487;SDS011;57976;48.174;16.370;2024-03-23T02:31:01;12.10;;;7.00;;
70487;SDS011;57976;48.174;16.370;2024-03-23T02:33:06;15.20;;;7.00;;
70487;SDS011;57976;48.174;16.370;2024-03-23T02:35:10;11.50;;;6.80;;
70487;SDS011;57976;48.174;16.370;2024-03-23T02:37:15;13.10;;;6.60;;
70487;SDS011;57976;48.174;16.370;2024-03-23T02:39:19;12.00;;;7.00;;
70487;SDS011;57976;48.174;16.370;2024-03-23T02:41:24;12.90;;;7.00;;
70487;SDS011;57976;48.174;16.370;2024-03-23T02:43:31;12.10;;;6.90;;
70487;SDS011;57976;48.174;16.370;2024-03-23T02:45:35;11.80;;;7.00;;
70487;SDS011;57976;48.174;16.370;2024-03-23T02:47:39;12.50;;;6.90;;
70487;SDS011;57976;48.174;16.370;2024-03-23T02:49:44;12.90;;;7.10;;
70487;SDS011;57976;48.174;16.370;2024-03-23T02:51:48;12.20;;;7.00;;
70487;SDS011;57976;48.174;16.370;2024-03-23T02:53:56;13.30;;;7.20;;
70487;SDS011;57976;48.174;16.370;2024-03-23T02:56:00;13.40;;;6.80;;
70487;SDS011;57976;48.174;16.370;2024-03-23T02:58:05;11.80;;;6.60;;
70487;SDS011;57976;48.174;16.370;2024-03-23T03:00:09;11.60;;;6.80;;
70487;SDS011;57976;48.174;16.370;2024-03-23T03:02:15;11.30;;;6.70;;
70487;SDS011;57976;48.174;16.370;2024-03-23T03:04:19;13.00;;;7.10;;
70487;SDS011;57976;48.174;16.370;2024-03-23T03:06:24;12.30;;;7.20;;
70487;SDS011;57976;48.174;16.370;2024-03-23T03:08:32;13.30;;;6.70;;
70487;SDS011;57976;48.174;16.370;2024-03-23T03:10:36;10.60;;;6.20;;
70487;SDS011;57976;48.174;16.370;2024-03-23T03:12:41;11.30;;;6.30;;
70487;SDS011;57976;48.174;16.370;2024-03-23T03:14:45;11.50;;;6.20;;
70487;SDS011;57976;48.174;16.370;2024-03-23T03:16:49;11.50;;;6.00;;
70487;SDS011;57976;48.174;16.370;2024-03-23T03:18:54;11.20;;;6.20;;
70487;SDS011;57976;48.174;16.370;2024-03-23T03:20:58;10.00;;;5.80;;
70487;SDS011;57976;48.174;16.370;2024-03-23T03:23:07;9.80;;;5.60;;
70487;SDS011;57976;48.174;16.370;2024-03-23T03:25:11;9.80;;;5.60;;
70487;SDS011;57976;48.174;16.370;2024-03-23T03:27:16;10.80;;;5.40;;
70487;SDS011;57976;48.174;16.370;2024-03-23T03:29:20;10.60;;;5.20;;
70487;SDS011;57976;48.174;16.370;2024-03-23T03:31:24;9.10;;;5.10;;
70487;SDS011;57976;48.174;16.370;2024-03-23T03:33:28;11.40;;;5.50;;
70487;SDS011;57976;48.174;16.370;2024-03-23T03:35:33;10.40;;;5.40;;
70487;SDS011;57976;48.174;16.370;2024-03-23T03:37:37;11.10;;;5.60;;
70487;SDS011;57976;48.174;16.370;2024-03-23T03:39:41;9.70;;;5.50;;
70487;SDS011;57976;48.174;16.370;2024-03-23T03:41:46;10.40;;;5.50;;
70487;SDS011;57976;48.174;16.370;2024-03-23T03:43:53;10.80;;;5.50;;
70487;SDS011;57976;48.174;16.370;2024-03-23T03:45:59;9.60;;;5.70;;
70487;SDS011;57976;48.174;16.370;2024-03-23T03:48:04;10.30;;;5.20;;
70487;SDS011;57976;48.174;16.370;2024-03-23T03:50:10;9.60;;;4.90;;
70487;SDS011;57976;48.174;16.370;2024-03-23T03:52:14;9.00;;;4.80;;
70487;SDS011;57976;48.174;16.370;2024-03-23T03:54:20;7.90;;;4.50;;
70487;SDS011;57976;48.174;16.370;2024-03-23T03:56:24;8.40;;;4.60;;
70487;SDS011;57976;48.174;16.370;2024-03-23T03:58:29;9.40;;;4.70;;
70487;SDS011;57976;48.174;16.370;2024-03-23T04:00:33;9.40;;;4.70;;
70487;SDS011;57976;48.174;16.370;2024-03-23T04:02:37;9.40;;;4.50;;
70487;SDS011;57976;48.174;16.370;2024-03-23T04:04:42;9.40;;;4.70;;
70487;SDS011;57976;48.174;16.370;2024-03-23T04:06:46;9.60;;;4.80;;
70487;SDS011;57976;48.174;16.370;2024-03-23T04:08:51;11.00;;;4.70;;
70487;SDS011;57976;48.174;16.370;2024-03-23T04:10:55;8.60;;;4.60;;
70487;SDS011;57976;48.174;16.370;2024-03-23T04:12:59;9.20;;;4.70;;
70487;SDS011;57976;48.174;16.370;2024-03-23T04:15:05;9.90;;;4.50;;
70487;SDS011;57976;48.174;16.370;2024-03-23T04:17:10;9.50;;;4.70;;
70487;SDS011;57976;48.174;16.370;2024-03-23T04:19:14;9.60;;;4.90;;
70487;SDS011;57976;48.174;16.370;2024-03-23T04:21:19;8.00;;;4.80;;
70487;SDS011;57976;48.174;16.370;2024-03-23T04:23:27;8.60;;;5.00;;
70487;SDS011;57976;48.174;16.370;2024-03-23T04:25:31;8.80;;;4.50;;
70487;SDS011;57976;48.174;16.370;2024-03-23T04:27:36;9.60;;;4.70;;
70487;SDS011;57976;48.174;16.370;2024-03-23T04:29:40;8.00;;;4.80;;
70487;SDS011;57976;48.174;16.370;2024-03-23T04:31:48;9.10;;;4.90;;
70487;SDS011;57976;48.174;16.370;2024-03-23T04:33:53;8.90;;;5.10;;
70487;SDS011;57976;48.174;16.370;2024-03-23T04:35:57;9.20;;;4.90;;
70487;SDS011;57976;48.174;16.370;2024-03-23T04:38:01;9.30;;;5.40;;
70487;SDS011;57976;48.174;16.370;2024-03-23T04:40:07;10.50;;;5.40;;
70487;SDS011;57976;48.174;16.370;2024-03-23T04:42:14;9.20;;;5.10;;
70487;SDS011;57976;48.174;16.370;2024-03-23T04:44:18;9.50;;;5.10;;
70487;SDS011;57976;48.174;16.370;2024-03-23T04:46:23;10.40;;;5.10;;
70487;SDS011;57976;48.174;16.370;2024-03-23T04:48:27;9.20;;;5.30;;
70487;SDS011;57976;48.174;16.370;2024-03-23T04:50:31;10.60;;;5.60;;
70487;SDS011;57976;48.174;16.370;2024-03-23T04:52:36;10.10;;;5.30;;
70487;SDS011;57976;48.174;16.370;2024-03-23T04:54:40;9.90;;;5.00;;
70487;SDS011;57976;48.174;16.370;2024-03-23T04:56:45;10.30;;;5.90;;
70487;SDS011;57976;48.174;16.370;2024-03-23T04:58:49;9.50;;;5.00;;
70487;SDS011;57976;48.174;16.370;2024-03-23T05:00:54;12.20;;;5.50;;
70487;SDS011;57976;48.174;16.370;2024-03-23T05:02:59;10.20;;;5.20;;
70487;SDS011;57976;48.174;16.370;2024-03-23T05:05:03;10.10;;;5.60;;
70487;SDS011;57976;48.174;16.370;2024-03-23T05:07:09;10.10;;;5.40;;
70487;SDS011;57976;48.174;16.370;2024-03-23T05:09:13;10.60;;;5.40;;
70487;SDS011;57976;48.174;16.370;2024-03-23T05:11:17;10.10;;;5.50;;
70487;SDS011;57976;48.174;16.370;2024-03-23T05:13:22;10.90;;;5.50;;
70487;SDS011;57976;48.174;16.370;2024-03-23T05:15:26;10.10;;;5.40;;
70487;SDS011;57976;48.174;16.370;2024-03-23T05:17:30;9.70;;;5.60;;
70487;SDS011;57976;48.174;16.370;2024-03-23T05:19:35;10.90;;;5.90;;
70487;SDS011;57976;48.174;16.370;2024-03-23T05:21:39;10.40;;;5.90;;
70487;SDS011;57976;48.174;16.370;2024-03-23T05:23:43;10.40;;;5.60;;
70487;SDS011;57976;48.174;16.370;2024-03-23T05:25:48;10.70;;;5.60;;
70487;SDS011;57976;48.174;16.370;2024-03-23T05:27:52;9.60;;;5.50;;
70487;SDS011;57976;48.174;16.370;2024-03-23T05:29:56;14.90;;;5.70;;
70487;SDS011;57976;48.174;16.370;2024-03-23T05:32:01;11.10;;;5.90;;
70487;SDS011;57976;48.174;16.370;2024-03-23T05:34:05;11.60;;;5.80;;
70487;SDS011;57976;48.174;16.370;2024-03-23T05:36:10;10.10;;;6.00;;
70487;SDS011;57976;48.174;16.370;2024-03-23T05:38:14;10.00;;;5.90;;
70487;SDS011;57976;48.174;16.370;2024-03-23T05:40:19;10.40;;;5.80;;
70487;SDS011;57976;48.174;16.370;2024-03-23T05:42:23;10.50;;;5.70;;
70487;SDS011;57976;48.174;16.370;2024-03-23T05:44:27;10.30;;;5.80;;
70487;SDS011;57976;48.174;16.370;2024-03-23T05:46:31;10.30;;;5.90;;
70487;SDS011;57976;48.174;16.370;2024-03-23T05:48:36;10.90;;;6.00;;
70487;SDS011;57976;48.174;16.370;2024-03-23T05:50:40;11.10;;;5.90;;
70487;SDS011;57976;48.174;16.370;2024-03-23T05:52:44;10.20;;;6.00;;
70487;SDS011;57976;48.174;16.370;2024-03-23T05:54:49;11.30;;;6.20;;
70487;SDS011;57976;48.174;16.370;2024-03-23T05:56:55;12.30;;;6.40;;
70487;SDS011;57976;48.174;16.370;2024-03-23T05:58:59;11.20;;;6.80;;
70487;SDS011;57976;48.174;16.370;2024-03-23T06:01:07;13.90;;;7.00;;
70487;SDS011;57976;48.174;16.370;2024-03-23T06:03:11;15.90;;;7.00;;
70487;SDS011;57976;48.174;16.370;2024-03-23T06:05:16;14.30;;;7.20;;
70487;SDS011;57976;48.174;16.370;2024-03-23T06:07:20;12.00;;;7.10;;
70487;SDS011;57976;48.174;16.370;2024-03-23T06:09:24;13.30;;;7.60;;
70487;SDS011;57976;48.174;16.370;2024-03-23T06:11:29;12.20;;;7.20;;
70487;SDS011;57976;48.174;16.370;2024-03-23T06:13:33;11.90;;;7.30;;
70487;SDS011;57976;48.174;16.370;2024-03-23T06:15:38;12.00;;;6.80;;
70487;SDS011;57976;48.174;16.370;2024-03-23T06:17:42;11.70;;;6.90;;
70487;SDS011;57976;48.174;16.370;2024-03-23T06:19:47;11.90;;;7.00;;
70487;SDS011;57976;48.174;16.370;2024-03-23T06:21:51;11.40;;;6.90;;
70487;SDS011;57976;48.174;16.370;2024-03-23T06:23:56;13.20;;;6.90;;
70487;SDS011;57976;48.174;16.370;2024-03-23T06:26:00;11.10;;;7.10;;
70487;SDS011;57976;48.174;16.370;2024-03-23T06:28:05;10.90;;;6.90;;
70487;SDS011;57976;48.174;16.370;2024-03-23T06:30:10;13.40;;;6.50;;
70487;SDS011;57976;48.174;16.370;2024-03-23T06:32:15;11.60;;;6.80;;
70487;SDS011;57976;48.174;16.370;2024-03-23T06:34:20;12.70;;;7.10;;
70487;SDS011;57976;48.174;16.370;2024-03-23T06:36:27;11.80;;;6.90;;
70487;SDS011;57976;48.174;16.370;2024-03-23T06:38:31;11.10;;;6.60;;
70487;SDS011;57976;48.174;16.370;2024-03-23T06:40:37;12.60;;;6.60;;
70487;SDS011;57976;48.174;16.370;2024-03-23T06:42:41;12.90;;;7.30;;
70487;SDS011;57976;48.174;16.370;2024-03-23T06:44:45;12.50;;;7.00;;
70487;SDS011;57976;48.174;16.370;2024-03-23T06:46:50;13.90;;;7.20;;
70487;SDS011;57976;48.174;16.370;2024-03-23T06:48:54;11.90;;;7.70;;
70487;SDS011;57976;48.174;16.370;2024-03-23T06:50:58;12.60;;;7.60;;
70487;SDS011;57976;48.174;16.370;2024-03-23T06:53:03;12.90;;;7.90;;
70487;SDS011;57976;48.174;16.370;2024-03-23T06:55:07;14.40;;;8.00;;
70487;SDS011;57976;48.174;16.370;2024-03-23T06:57:12;16.60;;;10.40;;
70487;SDS011;57976;48.174;16.370;2024-03-23T06:59:16;15.50;;;9.20;;
70487;SDS011;57976;48.174;16.370;2024-03-23T07:01:21;14.10;;;8.40;;
70487;SDS011;57976;48.174;16.370;2024-03-23T07:03:25;14.20;;;8.80;;
70487;SDS011;57976;48.174;16.370;2024-03-23T07:05:29;13.90;;;8.70;;
70487;SDS011;57976;48.174;16.370;2024-03-23T07:07:34;13.30;;;8.60;;
70487;SDS011;57976;48.174;16.370;2024-03-23T07:09:38;14.70;;;8.70;;
70487;SDS011;57976;48.174;16.370;2024-03-23T07:11:43;14.40;;;9.20;;
70487;SDS011;57976;48.174;16.370;2024-03-23T07:13:49;15.10;;;9.20;;
70487;SDS011;57976;48.174;16.370;2024-03-23T07:15:54;17.80;;;11.40;;
70487;SDS011;57976;48.174;16.370;2024-03-23T07:17:58;17.80;;;9.80;;
70487;SDS011;57976;48.174;16.370;2024-03-23T07:20:03;14.30;;;8.70;;
70487;SDS011;57976;48.174;16.370;2024-03-23T07:22:08;13.90;;;8.80;;
70487;SDS011;57976;48.174;16.370;2024-03-23T07:24:12;15.80;;;8.80;;
70487;SDS011;57976;48.174;16.370;2024-03-23T07:26:17;14.40;;;8.20;;
70487;SDS011;57976;48.174;16.370;2024-03-23T07:28:22;13.40;;;8.40;;
70487;SDS011;57976;48.174;16.370;2024-03-23T07:30:26;13.30;;;8.40;;
70487;SDS011;57976;48.174;16.370;2024-03-23T07:32:31;13.90;;;8.30;;
70487;SDS011;57976;48.174;16.370;2024-03-23T07:34:35;15.00;;;8.60;;
70487;SDS011;57976;48.174;16.370;2024-03-23T07:36:40;12.90;;;8.30;;
70487;SDS011;57976;48.174;16.370;2024-03-23T07:38:44;14.00;;;8.10;;
70487;SDS011;57976;48.174;16.370;2024-03-23T07:41:03;12.90;;;8.10;;
70487;SDS011;57976;48.174;16.370;2024-03-23T07:43:09;13.90;;;7.60;;
70487;SDS011;57976;48.174;16.370;2024-03-23T07:45:13;14.10;;;8.10;;
70487;SDS011;57976;48.174;16.370;2024-03-23T07:47:18;17.00;;;9.80;;
70487;SDS011;57976;48.174;16.370;2024-03-23T07:49:22;14.10;;;8.80;;
70487;SDS011;57976;48.174;16.370;2024-03-23T07:51:27;13.70;;;8.60;;
70487;SDS011;57976;48.174;16.370;2024-03-23T07:53:31;13.30;;;8.30;;
70487;SDS011;57976;48.174;16.370;2024-03-23T07:55:36;14.00;;;8.30;;
70487;SDS011;57976;48.174;16.370;2024-03-23T07:57:41;14.20;;;8.80;;
70487;SDS011;57976;48.174;16.370;2024-03-23T07:59:45;14.70;;;8.70;;
70487;SDS011;57976;48.174;16.370;2024-03-23T08:01:49;13.50;;;8.40;;
70487;SDS011;57976;48.174;16.370;2024-03-23T08:03:59;15.50;;;9.30;;
70487;SDS011;57976;48.174;16.370;2024-03-23T08:06:10;16.20;;;9.20;;
70487;SDS011;57976;48.174;16.370;2024-03-23T08:08:15;13.00;;;8.40;;
70487;SDS011;57976;48.174;16.370;2024-03-23T08:10:19;13.40;;;8.40;;
70487;SDS011;57976;48.174;16.370;2024-03-23T08:12:25;12.90;;;8.30;;
70487;SDS011;57976;48.174;16.370;2024-03-23T08:14:29;13.70;;;7.80;;
70487;SDS011;57976;48.174;16.370;2024-03-23T08:16:33;12.20;;;7.40;;
70487;SDS011;57976;48.174;16.370;2024-03-23T08:18:38;11.40;;;6.70;;
70487;SDS011;57976;48.174;16.370;2024-03-23T08:20:45;11.40;;;7.10;;
70487;SDS011;57976;48.174;16.370;2024-03-23T08:22:50;12.90;;;6.50;;
70487;SDS011;57976;48.174;16.370;2024-03-23T08:24:54;11.50;;;5.70;;
70487;SDS011;57976;48.174;16.370;2024-03-23T08:26:58;10.80;;;5.80;;
70487;SDS011;57976;48.174;16.370;2024-03-23T08:29:03;10.70;;;5.70;;
70487;SDS011;57976;48.174;16.370;2024-03-23T08:31:08;9.50;;;4.90;;
70487;SDS011;57976;48.174;16.370;2024-03-23T08:33:13;9.50;;;5.20;;
70487;SDS011;57976;48.174;16.370;2024-03-23T08:35:17;9.00;;;4.60;;
70487;SDS011;57976;48.174;16.370;2024-03-23T08:37:22;9.40;;;4.80;;
70487;SDS011;57976;48.174;16.370;2024-03-23T08:39:26;9.70;;;5.00;;
70487;SDS011;57976;48.174;16.370;2024-03-23T08:41:31;9.80;;;5.70;;
70487;SDS011;57976;48.174;16.370;2024-03-23T08:43:36;9.90;;;5.00;;
70487;SDS011;57976;48.174;16.370;2024-03-23T08:45:42;10.50;;;5.70;;
70487;SDS011;57976;48.174;16.370;2024-03-23T08:47:47;11.60;;;6.90;;
70487;SDS011;57976;48.174;16.370;2024-03-23T08:49:54;26.10;;;15.50;;
70487;SDS011;57976;48.174;16.370;2024-03-23T08:51:58;23.20;;;13.30;;
70487;SDS011;57976;48.174;16.370;2024-03-23T08:54:03;12.20;;;6.40;;
70487;SDS011;57976;48.174;16.370;2024-03-23T08:56:10;14.60;;;9.10;;
70487;SDS011;57976;48.174;16.370;2024-03-23T08:58:14;31.20;;;18.10;;
70487;SDS011;57976;48.174;16.370;2024-03-23T09:00:19;9.50;;;5.10;;
70487;SDS011;57976;48.174;16.370;2024-03-23T09:02:23;22.10;;;14.40;;
70487;SDS011;57976;48.174;16.370;2024-03-23T09:04:28;28.10;;;17.10;;
70487;SDS011;57976;48.174;16.370;2024-03-23T09:06:35;9.90;;;4.80;;
70487;SDS011;57976;48.174;16.370;2024-03-23T09:08:40;9.80;;;4.90;;
70487;SDS011;57976;48.174;16.370;2024-03-23T09:10:44;9.00;;;4.10;;
70487;SDS011;57976;48.174;16.370;2024-03-23T09:12:50;9.90;;;5.00;;
70487;SDS011;57976;48.174;16.370;2024-03-23T09:14:54;10.70;;;4.40;;
70487;SDS011;57976;48.174;16.370;2024-03-23T09:17:01;7.50;;;3.50;;
70487;SDS011;57976;48.174;16.370;2024-03-23T09:19:06;6.70;;;2.90;;
70487;SDS011;57976;48.174;16.370;2024-03-23T09:21:12;7.50;;;3.50;;
70487;SDS011;57976;48.174;16.370;2024-03-23T09:23:16;6.10;;;3.10;;
70487;SDS011;57976;48.174;16.370;2024-03-23T09:25:21;7.30;;;3.10;;
70487;SDS011;57976;48.174;16.370;2024-03-23T09:27:25;7.20;;;2.90;;
70487;SDS011;57976;48.174;16.370;2024-03-23T09:29:29;6.90;;;3.10;;
70487;SDS011;57976;48.174;16.370;2024-03-23T09:31:34;7.50;;;3.10;;
70487;SDS011;57976;48.174;16.370;2024-03-23T09:33:38;6.40;;;2.70;;
70487;SDS011;57976;48.174;16.370;2024-03-23T09:35:43;8.10;;;3.10;;
70487;SDS011;57976;48.174;16.370;2024-03-23T09:37:48;6.20;;;3.00;;
70487;SDS011;57976;48.174;16.370;2024-03-23T09:39:52;9.60;;;3.50;;
70487;SDS011;57976;48.174;16.370;2024-03-23T09:41:57;9.40;;;3.10;;
70487;SDS011;57976;48.174;16.370;2024-03-23T09:44:02;7.90;;;2.90;;
70487;SDS011;57976;48.174;16.370;2024-03-23T09:46:07;7.60;;;3.50;;
70487;SDS011;57976;48.174;16.370;2024-03-23T09:48:13;8.20;;;3.60;;
70487;SDS011;57976;48.174;16.370;2024-03-23T09:50:18;6.50;;;2.70;;
70487;SDS011;57976;48.174;16.370;2024-03-23T09:52:22;5.50;;;2.60;;
70487;SDS011;57976;48.174;16.370;2024-03-23T09:54:27;6.30;;;2.50;;
70487;SDS011;57976;48.174;16.370;2024-03-23T09:56:31;8.00;;;2.80;;
70487;SDS011;57976;48.174;16.370;2024-03-23T09:58:38;6.60;;;3.00;;
70487;SDS011;57976;48.174;16.370;2024-03-23T10:00:42;8.50;;;2.90;;
70487;SDS011;57976;48.174;16.370;2024-03-23T10:02:47;6.60;;;3.00;;
70487;SDS011;57976;48.174;16.370;2024-03-23T10:04:52;6.30;;;3.10;;
70487;SDS011;57976;48.174;16.370;2024-03-23T10:06:58;7.00;;;3.00;;
70487;SDS011;57976;48.174;16.370;2024-03-23T10:09:17;7.10;;;3.00;;
70487;SDS011;57976;48.174;16.370;2024-03-23T10:11:22;9.20;;;2.80;;
70487;SDS011;57976;48.174;16.370;2024-03-23T10:13:26;6.40;;;2.70;;
70487;SDS011;57976;48.174;16.370;2024-03-23T10:15:32;7.70;;;2.70;;
70487;SDS011;57976;48.174;16.370;2024-03-23T10:17:38;7.00;;;3.00;;
70487;SDS011;57976;48.174;16.370;2024-03-23T10:19:43;8.10;;;3.10;;
70487;SDS011;57976;48.174;16.370;2024-03-23T10:21:53;6.80;;;2.90;;
70487;SDS011;57976;48.174;16.370;2024-03-23T10:24:01;7.70;;;3.00;;
70487;SDS011;57976;48.174;16.370;2024-03-23T10:26:16;7.50;;;2.70;;
70487;SDS011;57976;48.174;16.370;2024-03-23T10:28:21;6.10;;;2.90;;
70487;SDS011;57976;48.174;16.370;2024-03-23T10:30:26;7.10;;;2.80;;
70487;SDS011;57976;48.174;16.370;2024-03-23T10:32:30;7.20;;;2.90;;
70487;SDS011;57976;48.174;16.370;2024-03-23T10:34:35;6.90;;;3.20;;
70487;SDS011;57976;48.174;16.370;2024-03-23T10:36:39;6.90;;;3.20;;
70487;SDS011;57976;48.174;16.370;2024-03-23T10:38:45;7.60;;;3.00;;
70487;SDS011;57976;48.174;16.370;2024-03-23T10:40:50;5.50;;;2.60;;
70487;SDS011;57976;48.174;16.370;2024-03-23T10:42:56;6.00;;;2.80;;
70487;SDS011;57976;48.174;16.370;2024-03-23T10:45:02;6.70;;;2.90;;
70487;SDS011;57976;48.174;16.370;2024-03-23T10:47:08;7.00;;;3.00;;
70487;SDS011;57976;48.174;16.370;2024-03-23T10:49:13;5.70;;;2.60;;
70487;SDS011;57976;48.174;16.370;2024-03-23T10:51:17;7.00;;;2.70;;
70487;SDS011;57976;48.174;16.370;2024-03-23T10:53:22;6.00;;;2.70;;
70487;SDS011;57976;48.174;16.370;2024-03-23T10:55:29;6.00;;;2.40;;
70487;SDS011;57976;48.174;16.370;2024-03-23T10:57:36;6.00;;;2.70;;
70487;SDS011;57976;48.174;16.370;2024-03-23T10:59:44;6.30;;;2.30;;
70487;SDS011;57976;48.174;16.370;2024-03-23T11:01:56;5.50;;;2.30;;
70487;SDS011;57976;48.174;16.370;2024-03-23T11:04:01;5.40;;;2.20;;
70487;SDS011;57976;48.174;16.370;2024-03-23T11:06:05;5.90;;;2.30;;
70487;SDS011;57976;48.174;16.370;2024-03-23T11:08:10;4.60;;;2.00;;
70487;SDS011;57976;48.174;16.370;2024-03-23T11:10:32;7.00;;;2.40;;
70487;SDS011;57976;48.174;16.370;2024-03-23T11:12:36;7.40;;;2.80;;
70487;SDS011;57976;48.174;16.370;2024-03-23T11:14:42;5.30;;;2.20;;
70487;SDS011;57976;48.174;16.370;2024-03-23T11:16:46;5.60;;;1.90;;
70487;SDS011;57976;48.174;16.370;2024-03-23T11:21:55;5.20;;;1.80;;
70487;SDS011;57976;48.174;16.370;2024-03-23T11:24:13;4.40;;;1.70;;
70487;SDS011;57976;48.174;16.370;2024-03-23T11:26:18;4.20;;;1.50;;
70487;SDS011;57976;48.174;16.370;2024-03-23T11:28:22;4.60;;;1.60;;
70487;SDS011;57976;48.174;16.370;2024-03-23T11:30:27;5.10;;;2.00;;
70487;SDS011;57976;48.174;16.370;2024-03-23T11:32:31;4.80;;;1.70;;
70487;SDS011;57976;48.174;16.370;2024-03-23T11:34:37;4.90;;;1.70;;
70487;SDS011;57976;48.174;16.370;2024-03-23T11:36:42;6.00;;;1.60;;
70487;SDS011;57976;48.174;16.370;2024-03-23T11:38:47;4.40;;;1.60;;
70487;SDS011;57976;48.174;16.370;2024-03-23T11:40:51;4.80;;;1.60;;
70487;SDS011;57976;48.174;16.370;2024-03-23T11:42:57;4.40;;;1.50;;
70487;SDS011;57976;48.174;16.370;2024-03-23T11:45:08;5.60;;;1.60;;
70487;SDS011;57976;48.174;16.370;2024-03-23T11:47:13;5.70;;;1.90;;
70487;SDS011;57976;48.174;16.370;2024-03-23T11:49:22;5.70;;;1.80;;
70487;SDS011;57976;48.174;16.370;2024-03-23T11:51:27;5.70;;;1.90;;
70487;SDS011;57976;48.174;16.370;2024-03-23T11:53:33;5.30;;;2.00;;
70487;SDS011;57976;48.174;16.370;2024-03-23T11:55:41;5.20;;;1.70;;
70487;SDS011;57976;48.174;16.370;2024-03-23T11:57:50;4.60;;;1.70;;
70487;SDS011;57976;48.174;16.370;2024-03-23T11:59:54;6.10;;;1.90;;
70487;SDS011;57976;48.174;16.370;2024-03-23T12:01:59;5.00;;;1.70;;
70487;SDS011;57976;48.174;16.370;2024-03-23T12:04:08;5.00;;;1.80;;
70487;SDS011;57976;48.174;16.370;2024-03-23T12:06:12;4.60;;;1.60;;
70487;SDS011;57976;48.174;16.370;2024-03-23T12:08:29;5.40;;;2.10;;
70487;SDS011;57976;48.174;16.370;2024-03-23T12:10:34;5.90;;;2.30;;
70487;SDS011;57976;48.174;16.370;2024-03-23T12:12:39;7.20;;;2.00;;
70487;SDS011;57976;48.174;16.370;2024-03-23T12:15:00;7.80;;;2.40;;
70487;SDS011;57976;48.174;16.370;2024-03-23T12:17:12;5.20;;;1.90;;
70487;SDS011;57976;48.174;16.370;2024-03-23T12:19:17;5.40;;;2.30;;
70487;SDS011;57976;48.174;16.370;2024-03-23T12:21:21;5.10;;;2.00;;
70487;SDS011;57976;48.174;16.370;2024-03-23T12:23:26;5.80;;;2.00;;
70487;SDS011;57976;48.174;16.370;2024-03-23T12:25:30;5.30;;;2.20;;
70487;SDS011;57976;48.174;16.370;2024-03-23T12:27:38;5.40;;;1.90;;
70487;SDS011;57976;48.174;16.370;2024-03-23T12:29:42;6.80;;;2.00;;
70487;SDS011;57976;48.174;16.370;2024-03-23T12:31:46;5.80;;;2.00;;
70487;SDS011;57976;48.174;16.370;2024-03-23T12:33:51;5.30;;;2.10;;
70487;SDS011;57976;48.174;16.370;2024-03-23T12:35:55;5.70;;;1.70;;
70487;SDS011;57976;48.174;16.370;2024-03-23T12:38:00;6.20;;;2.40;;
70487;SDS011;57976;48.174;16.370;2024-03-23T12:40:05;6.40;;;2.40;;
70487;SDS011;57976;48.174;16.370;2024-03-23T12:42:13;4.90;;;2.00;;
70487;SDS011;57976;48.174;16.370;2024-03-23T12:44:17;6.00;;;2.00;;
70487;SDS011;57976;48.174;16.370;2024-03-23T12:46:21;4.70;;;2.20;;
70487;SDS011;57976;48.174;16.370;2024-03-23T12:48:26;5.70;;;2.50;;
70487;SDS011;57976;48.174;16.370;2024-03-23T12:50:30;7.90;;;3.10;;
70487;SDS011;57976;48.174;16.370;2024-03-23T12:52:34;8.90;;;3.40;;
70487;SDS011;57976;48.174;16.370;2024-03-23T12:54:39;4.90;;;2.10;;
70487;SDS011;57976;48.174;16.370;2024-03-23T12:56:43;8.30;;;2.30;;
70487;SDS011;57976;48.174;16.370;2024-03-23T12:58:48;10.60;;;2.30;;
70487;SDS011;57976;48.174;16.370;2024-03-23T13:00:52;8.70;;;2.10;;
70487;SDS011;57976;48.174;16.370;2024-03-23T13:02:57;6.30;;;2.10;;
70487;SDS011;57976;48.174;16.370;2024-03-23T13:05:01;5.40;;;1.90;;
70487;SDS011;57976;48.174;16.370;2024-03-23T13:07:05;6.20;;;1.60;;
70487;SDS011;57976;48.174;16.370;2024-03-23T13:09:10;6.80;;;1.70;;
70487;SDS011;57976;48.174;16.370;2024-03-23T13:11:17;5.30;;;1.50;;
70487;SDS011;57976;48.174;16.370;2024-03-23T13:13:21;6.90;;;1.20;;